sensor_id;sensor_type;location;lat;lon;timestamp;P1;durP1;ratioP1;P2;durP2;ratioP2
5297;SDS011;14738;42.668;23.250;2023-03-01T00:02:00;6.83;;;6.00;;
5297;SDS011;14738;42.668;23.250;2023-03-01T00:04:26;6.37;;;5.80;;
5297;SDS011;14738;42.668;23.250;2023-03-01T00:06:52;5.90;;;5.40;;
5297;SDS011;14738;42.668;23.250;2023-03-01T00:09:18;6.43;;;5.83;;
5297;SDS011;14738;42.668;23.250;2023-03-01T00:11:44;6.37;;;5.87;;
5297;SDS011;14738;42.668;23.250;2023-03-01T00:14:09;6.03;;;5.50;;
5297;SDS011;14738;42.668;23.250;2023-03-01T00:16:39;6.00;;;5.50;;
5297;SDS011;14738;42.668;23.250;2023-03-01T00:19:06;7.00;;;6.30;;
5297;SDS011;14738;42.668;23.250;2023-03-01T00:21:34;6.37;;;5.60;;
5297;SDS011;14738;42.668;23.250;2023-03-01T00:24:00;5.73;;;5.23;;
5297;SDS011;14738;42.668;23.250;2023-03-01T00:26:26;5.30;;;4.90;;
5297;SDS011;14738;42.668;23.250;2023-03-01T00:28:52;6.20;;;5.70;;
5297;SDS011;14738;42.668;23.250;2023-03-01T00:31:19;5.10;;;4.80;;
5297;SDS011;14738;42.668;23.250;2023-03-01T00:33:46;5.37;;;4.97;;
5297;SDS011;14738;42.668;23.250;2023-03-01T00:36:12;6.47;;;5.93;;
5297;SDS011;14738;42.668;23.250;2023-03-01T00:38:40;5.90;;;5.50;;
5297;SDS011;14738;42.668;23.250;2023-03-01T00:41:11;5.43;;;4.93;;
5297;SDS011;14738;42.668;23.250;2023-03-01T00:43:38;5.60;;;5.10;;
5297;SDS011;14738;42.668;23.250;2023-03-01T00:46:14;5.47;;;5.10;;
5297;SDS011;14738;42.668;23.250;2023-03-01T00:48:44;4.77;;;4.47;;
5297;SDS011;14738;42.668;23.250;2023-03-01T00:53:37;5.47;;;5.07;;
5297;SDS011;14738;42.668;23.250;2023-03-01T00:56:03;4.80;;;4.50;;
5297;SDS011;14738;42.668;23.250;2023-03-01T00:58:30;5.00;;;4.60;;
5297;SDS011;14738;42.668;23.250;2023-03-01T01:00:55;4.60;;;4.20;;
5297;SDS011;14738;42.668;23.250;2023-03-01T01:03:21;4.90;;;4.60;;
5297;SDS011;14738;42.668;23.250;2023-03-01T01:05:49;4.77;;;4.47;;
5297;SDS011;14738;42.668;23.250;2023-03-01T01:08:15;5.20;;;4.80;;
5297;SDS011;14738;42.668;23.250;2023-03-01T01:10:42;4.60;;;4.30;;
5297;SDS011;14738;42.668;23.250;2023-03-01T01:13:09;4.13;;;3.83;;
5297;SDS011;14738;42.668;23.250;2023-03-01T01:15:35;4.70;;;4.40;;
5297;SDS011;14738;42.668;23.250;2023-03-01T01:18:01;5.10;;;4.70;;
5297;SDS011;14738;42.668;23.250;2023-03-01T01:20:26;4.57;;;4.33;;
5297;SDS011;14738;42.668;23.250;2023-03-01T01:22:52;4.40;;;4.10;;
5297;SDS011;14738;42.668;23.250;2023-03-01T01:25:17;3.10;;;3.00;;
5297;SDS011;14738;42.668;23.250;2023-03-01T01:27:43;4.30;;;4.07;;
5297;SDS011;14738;42.668;23.250;2023-03-01T01:30:08;4.40;;;4.10;;
5297;SDS011;14738;42.668;23.250;2023-03-01T01:32:34;4.27;;;4.07;;
5297;SDS011;14738;42.668;23.250;2023-03-01T01:35:00;3.80;;;3.60;;
5297;SDS011;14738;42.668;23.250;2023-03-01T01:37:25;3.60;;;3.40;;
5297;SDS011;14738;42.668;23.250;2023-03-01T01:39:56;3.77;;;3.57;;
5297;SDS011;14738;42.668;23.250;2023-03-01T01:42:23;3.80;;;3.60;;
5297;SDS011;14738;42.668;23.250;2023-03-01T01:45:15;3.80;;;3.60;;
5297;SDS011;14738;42.668;23.250;2023-03-01T01:47:51;3.07;;;2.97;;
5297;SDS011;14738;42.668;23.250;2023-03-01T01:50:19;2.50;;;2.40;;
5297;SDS011;14738;42.668;23.250;2023-03-01T01:52:45;2.80;;;2.70;;
5297;SDS011;14738;42.668;23.250;2023-03-01T01:55:15;3.00;;;2.87;;
5297;SDS011;14738;42.668;23.250;2023-03-01T01:57:52;2.73;;;2.63;;
5297;SDS011;14738;42.668;23.250;2023-03-01T02:00:24;2.40;;;2.30;;
5297;SDS011;14738;42.668;23.250;2023-03-01T02:02:55;2.60;;;2.50;;
5297;SDS011;14738;42.668;23.250;2023-03-01T02:08:16;2.23;;;2.13;;
5297;SDS011;14738;42.668;23.250;2023-03-01T02:10:44;2.47;;;2.37;;
5297;SDS011;14738;42.668;23.250;2023-03-01T02:13:10;2.70;;;2.60;;
5297;SDS011;14738;42.668;23.250;2023-03-01T02:15:37;2.67;;;2.57;;
5297;SDS011;14738;42.668;23.250;2023-03-01T02:18:04;2.83;;;2.73;;
5297;SDS011;14738;42.668;23.250;2023-03-01T02:20:35;2.63;;;2.53;;
5297;SDS011;14738;42.668;23.250;2023-03-01T02:23:20;2.70;;;2.60;;
5297;SDS011;14738;42.668;23.250;2023-03-01T02:25:55;2.70;;;2.60;;
5297;SDS011;14738;42.668;23.250;2023-03-01T02:30:56;2.90;;;2.80;;
5297;SDS011;14738;42.668;23.250;2023-03-01T02:33:40;3.10;;;3.00;;
5297;SDS011;14738;42.668;23.250;2023-03-01T02:36:10;3.20;;;2.60;;
5297;SDS011;14738;42.668;23.250;2023-03-01T02:38:41;3.10;;;3.00;;
5297;SDS011;14738;42.668;23.250;2023-03-01T02:41:07;2.73;;;2.63;;
5297;SDS011;14738;42.668;23.250;2023-03-01T02:43:35;3.00;;;2.90;;
5297;SDS011;14738;42.668;23.250;2023-03-01T02:46:06;2.90;;;2.80;;
5297;SDS011;14738;42.668;23.250;2023-03-01T02:48:44;2.70;;;2.60;;
5297;SDS011;14738;42.668;23.250;2023-03-01T02:51:18;2.80;;;2.70;;
5297;SDS011;14738;42.668;23.250;2023-03-01T02:56:44;3.47;;;3.30;;
5297;SDS011;14738;42.668;23.250;2023-03-01T02:59:14;3.17;;;3.07;;
5297;SDS011;14738;42.668;23.250;2023-03-01T03:01:41;3.03;;;2.83;;
5297;SDS011;14738;42.668;23.250;2023-03-01T03:04:08;3.90;;;3.70;;
5297;SDS011;14738;42.668;23.250;2023-03-01T03:06:42;3.90;;;3.70;;
5297;SDS011;14738;42.668;23.250;2023-03-01T03:09:09;3.80;;;3.60;;
5297;SDS011;14738;42.668;23.250;2023-03-01T03:11:34;4.30;;;4.10;;
5297;SDS011;14738;42.668;23.250;2023-03-01T03:14:01;3.47;;;3.27;;
5297;SDS011;14738;42.668;23.250;2023-03-01T03:16:27;4.60;;;4.30;;
5297;SDS011;14738;42.668;23.250;2023-03-01T03:18:54;4.77;;;4.47;;
5297;SDS011;14738;42.668;23.250;2023-03-01T03:21:29;5.30;;;5.00;;
5297;SDS011;14738;42.668;23.250;2023-03-01T03:23:56;5.87;;;5.47;;
5297;SDS011;14738;42.668;23.250;2023-03-01T03:26:22;6.03;;;5.63;;
5297;SDS011;14738;42.668;23.250;2023-03-01T03:28:48;6.33;;;5.83;;
5297;SDS011;14738;42.668;23.250;2023-03-01T03:31:13;5.10;;;4.70;;
5297;SDS011;14738;42.668;23.250;2023-03-01T03:33:38;6.10;;;5.60;;
5297;SDS011;14738;42.668;23.250;2023-03-01T03:36:04;5.40;;;5.00;;
5297;SDS011;14738;42.668;23.250;2023-03-01T03:38:30;6.83;;;6.23;;
5297;SDS011;14738;42.668;23.250;2023-03-01T03:41:03;6.03;;;5.53;;
5297;SDS011;14738;42.668;23.250;2023-03-01T03:43:31;5.90;;;5.40;;
5297;SDS011;14738;42.668;23.250;2023-03-01T03:45:57;6.20;;;5.80;;
5297;SDS011;14738;42.668;23.250;2023-03-01T03:48:23;6.13;;;5.70;;
5297;SDS011;14738;42.668;23.250;2023-03-01T03:50:50;4.77;;;4.37;;
5297;SDS011;14738;42.668;23.250;2023-03-01T03:53:18;5.90;;;5.50;;
5297;SDS011;14738;42.668;23.250;2023-03-01T03:55:44;5.33;;;4.93;;
5297;SDS011;14738;42.668;23.250;2023-03-01T03:58:10;5.93;;;5.43;;
5297;SDS011;14738;42.668;23.250;2023-03-01T04:00:40;6.00;;;5.27;;
5297;SDS011;14738;42.668;23.250;2023-03-01T04:03:07;5.50;;;5.10;;
5297;SDS011;14738;42.668;23.250;2023-03-01T04:05:34;5.97;;;5.47;;
5297;SDS011;14738;42.668;23.250;2023-03-01T04:08:00;5.27;;;4.87;;
5297;SDS011;14738;42.668;23.250;2023-03-01T04:10:27;4.63;;;4.33;;
5297;SDS011;14738;42.668;23.250;2023-03-01T04:12:56;5.40;;;5.00;;
5297;SDS011;14738;42.668;23.250;2023-03-01T04:15:22;4.60;;;4.20;;
5297;SDS011;14738;42.668;23.250;2023-03-01T04:17:51;4.93;;;4.53;;
5297;SDS011;14738;42.668;23.250;2023-03-01T04:20:19;4.10;;;3.80;;
5297;SDS011;14738;42.668;23.250;2023-03-01T04:23:00;5.20;;;4.10;;
5297;SDS011;14738;42.668;23.250;2023-03-01T04:25:38;4.40;;;4.10;;
5297;SDS011;14738;42.668;23.250;2023-03-01T04:28:05;4.83;;;4.53;;
5297;SDS011;14738;42.668;23.250;2023-03-01T04:30:31;4.77;;;4.47;;
5297;SDS011;14738;42.668;23.250;2023-03-01T04:33:01;5.00;;;4.60;;
5297;SDS011;14738;42.668;23.250;2023-03-01T04:35:28;4.90;;;4.50;;
5297;SDS011;14738;42.668;23.250;2023-03-01T04:37:54;4.80;;;4.47;;
5297;SDS011;14738;42.668;23.250;2023-03-01T04:40:19;4.97;;;4.63;;
5297;SDS011;14738;42.668;23.250;2023-03-01T04:42:46;5.20;;;4.87;;
5297;SDS011;14738;42.668;23.250;2023-03-01T04:45:12;5.03;;;4.60;;
5297;SDS011;14738;42.668;23.250;2023-03-01T04:47:40;5.67;;;4.70;;
5297;SDS011;14738;42.668;23.250;2023-03-01T04:50:08;4.93;;;4.43;;
5297;SDS011;14738;42.668;23.250;2023-03-01T04:52:35;5.40;;;4.97;;
5297;SDS011;14738;42.668;23.250;2023-03-01T04:55:01;4.67;;;4.33;;
5297;SDS011;14738;42.668;23.250;2023-03-01T04:57:28;4.07;;;3.73;;
5297;SDS011;14738;42.668;23.250;2023-03-01T04:59:54;5.17;;;4.67;;
5297;SDS011;14738;42.668;23.250;2023-03-01T05:02:19;4.80;;;4.50;;
5297;SDS011;14738;42.668;23.250;2023-03-01T05:04:45;5.17;;;4.77;;
5297;SDS011;14738;42.668;23.250;2023-03-01T05:07:10;4.80;;;4.40;;
5297;SDS011;14738;42.668;23.250;2023-03-01T05:09:38;4.93;;;4.53;;
5297;SDS011;14738;42.668;23.250;2023-03-01T05:12:03;4.50;;;4.20;;
5297;SDS011;14738;42.668;23.250;2023-03-01T05:14:29;5.27;;;3.90;;
5297;SDS011;14738;42.668;23.250;2023-03-01T05:16:54;4.30;;;4.00;;
5297;SDS011;14738;42.668;23.250;2023-03-01T05:19:20;5.07;;;4.67;;
5297;SDS011;14738;42.668;23.250;2023-03-01T05:21:48;7.53;;;6.83;;
5297;SDS011;14738;42.668;23.250;2023-03-01T05:24:34;5.47;;;5.00;;
5297;SDS011;14738;42.668;23.250;2023-03-01T05:27:00;5.10;;;4.70;;
5297;SDS011;14738;42.668;23.250;2023-03-01T05:29:27;4.80;;;4.50;;
5297;SDS011;14738;42.668;23.250;2023-03-01T05:31:55;5.00;;;4.70;;
5297;SDS011;14738;42.668;23.250;2023-03-01T05:34:27;4.80;;;4.50;;
5297;SDS011;14738;42.668;23.250;2023-03-01T05:36:54;6.60;;;6.00;;
5297;SDS011;14738;42.668;23.250;2023-03-01T05:39:20;5.13;;;4.73;;
5297;SDS011;14738;42.668;23.250;2023-03-01T05:41:47;4.60;;;4.20;;
5297;SDS011;14738;42.668;23.250;2023-03-01T05:44:16;5.40;;;5.00;;
5297;SDS011;14738;42.668;23.250;2023-03-01T05:46:42;4.10;;;3.90;;
5297;SDS011;14738;42.668;23.250;2023-03-01T05:49:07;6.37;;;5.77;;
5297;SDS011;14738;42.668;23.250;2023-03-01T05:51:33;5.27;;;4.87;;
5297;SDS011;14738;42.668;23.250;2023-03-01T05:53:59;4.57;;;4.17;;
5297;SDS011;14738;42.668;23.250;2023-03-01T05:56:24;5.70;;;5.30;;
5297;SDS011;14738;42.668;23.250;2023-03-01T05:58:49;6.20;;;4.73;;
5297;SDS011;14738;42.668;23.250;2023-03-01T06:01:15;6.00;;;5.00;;
5297;SDS011;14738;42.668;23.250;2023-03-01T06:03:41;5.10;;;4.70;;
5297;SDS011;14738;42.668;23.250;2023-03-01T06:06:06;5.20;;;4.80;;
5297;SDS011;14738;42.668;23.250;2023-03-01T06:08:32;3.90;;;3.60;;
5297;SDS011;14738;42.668;23.250;2023-03-01T06:10:57;4.33;;;4.07;;
5297;SDS011;14738;42.668;23.250;2023-03-01T06:13:23;4.40;;;4.00;;
5297;SDS011;14738;42.668;23.250;2023-03-01T06:15:49;5.23;;;4.73;;
5297;SDS011;14738;42.668;23.250;2023-03-01T06:18:14;4.40;;;4.10;;
5297;SDS011;14738;42.668;23.250;2023-03-01T06:20:40;5.20;;;4.80;;
5297;SDS011;14738;42.668;23.250;2023-03-01T06:23:06;5.00;;;4.53;;
5297;SDS011;14738;42.668;23.250;2023-03-01T06:25:31;6.57;;;4.70;;
5297;SDS011;14738;42.668;23.250;2023-03-01T06:27:57;8.37;;;6.33;;
5297;SDS011;14738;42.668;23.250;2023-03-01T06:30:23;6.73;;;6.20;;
5297;SDS011;14738;42.668;23.250;2023-03-01T06:32:50;6.77;;;5.93;;
5297;SDS011;14738;42.668;23.250;2023-03-01T06:35:16;8.17;;;5.53;;
5297;SDS011;14738;42.668;23.250;2023-03-01T06:37:43;5.77;;;5.23;;
5297;SDS011;14738;42.668;23.250;2023-03-01T06:40:10;5.10;;;4.70;;
5297;SDS011;14738;42.668;23.250;2023-03-01T06:42:40;5.37;;;4.90;;
5297;SDS011;14738;42.668;23.250;2023-03-01T06:45:06;4.27;;;3.97;;
5297;SDS011;14738;42.668;23.250;2023-03-01T06:47:33;4.40;;;4.10;;
5297;SDS011;14738;42.668;23.250;2023-03-01T06:49:59;4.53;;;4.23;;
5297;SDS011;14738;42.668;23.250;2023-03-01T06:52:25;5.10;;;4.80;;
5297;SDS011;14738;42.668;23.250;2023-03-01T06:54:51;4.60;;;4.30;;
5297;SDS011;14738;42.668;23.250;2023-03-01T06:57:16;4.37;;;4.07;;
5297;SDS011;14738;42.668;23.250;2023-03-01T06:59:42;4.83;;;4.43;;
5297;SDS011;14738;42.668;23.250;2023-03-01T07:02:09;4.63;;;4.20;;
5297;SDS011;14738;42.668;23.250;2023-03-01T07:04:38;5.70;;;4.60;;
5297;SDS011;14738;42.668;23.250;2023-03-01T07:07:04;4.23;;;3.93;;
5297;SDS011;14738;42.668;23.250;2023-03-01T07:09:30;3.40;;;3.20;;
5297;SDS011;14738;42.668;23.250;2023-03-01T07:11:56;3.90;;;3.60;;
5297;SDS011;14738;42.668;23.250;2023-03-01T07:14:22;4.47;;;4.13;;
5297;SDS011;14738;42.668;23.250;2023-03-01T07:16:50;5.73;;;5.13;;
5297;SDS011;14738;42.668;23.250;2023-03-01T07:19:16;6.67;;;6.17;;
5297;SDS011;14738;42.668;23.250;2023-03-01T07:21:42;5.77;;;5.03;;
5297;SDS011;14738;42.668;23.250;2023-03-01T07:24:08;4.30;;;4.10;;
5297;SDS011;14738;42.668;23.250;2023-03-01T07:26:33;4.20;;;3.90;;
5297;SDS011;14738;42.668;23.250;2023-03-01T07:28:59;6.37;;;4.93;;
5297;SDS011;14738;42.668;23.250;2023-03-01T07:31:25;4.80;;;4.40;;
5297;SDS011;14738;42.668;23.250;2023-03-01T07:33:53;5.20;;;4.13;;
5297;SDS011;14738;42.668;23.250;2023-03-01T07:36:19;4.47;;;4.17;;
5297;SDS011;14738;42.668;23.250;2023-03-01T07:38:44;4.80;;;4.40;;
5297;SDS011;14738;42.668;23.250;2023-03-01T07:41:10;6.93;;;6.30;;
5297;SDS011;14738;42.668;23.250;2023-03-01T07:43:35;4.10;;;3.70;;
5297;SDS011;14738;42.668;23.250;2023-03-01T07:46:01;3.73;;;2.87;;
5297;SDS011;14738;42.668;23.250;2023-03-01T07:48:28;3.33;;;3.13;;
5297;SDS011;14738;42.668;23.250;2023-03-01T07:50:54;4.03;;;3.73;;
5297;SDS011;14738;42.668;23.250;2023-03-01T07:53:23;7.67;;;3.47;;
5297;SDS011;14738;42.668;23.250;2023-03-01T07:55:48;3.20;;;3.10;;
5297;SDS011;14738;42.668;23.250;2023-03-01T07:58:13;4.43;;;4.03;;
5297;SDS011;14738;42.668;23.250;2023-03-01T08:00:39;3.20;;;2.90;;
5297;SDS011;14738;42.668;23.250;2023-03-01T08:03:04;3.50;;;3.30;;
5297;SDS011;14738;42.668;23.250;2023-03-01T08:05:30;4.10;;;3.50;;
5297;SDS011;14738;42.668;23.250;2023-03-01T08:07:55;3.90;;;3.60;;
5297;SDS011;14738;42.668;23.250;2023-03-01T08:10:20;3.67;;;3.37;;
5297;SDS011;14738;42.668;23.250;2023-03-01T08:12:46;4.37;;;3.97;;
5297;SDS011;14738;42.668;23.250;2023-03-01T08:15:11;3.67;;;3.37;;
5297;SDS011;14738;42.668;23.250;2023-03-01T08:17:37;8.80;;;6.40;;
5297;SDS011;14738;42.668;23.250;2023-03-01T08:20:02;4.73;;;4.33;;
5297;SDS011;14738;42.668;23.250;2023-03-01T08:22:31;6.00;;;3.73;;
5297;SDS011;14738;42.668;23.250;2023-03-01T08:24:56;3.60;;;3.40;;
5297;SDS011;14738;42.668;23.250;2023-03-01T08:27:22;3.10;;;3.00;;
5297;SDS011;14738;42.668;23.250;2023-03-01T08:29:47;5.83;;;4.00;;
5297;SDS011;14738;42.668;23.250;2023-03-01T08:32:12;4.43;;;4.13;;
5297;SDS011;14738;42.668;23.250;2023-03-01T08:34:38;5.10;;;4.60;;
5297;SDS011;14738;42.668;23.250;2023-03-01T08:37:03;6.73;;;6.13;;
5297;SDS011;14738;42.668;23.250;2023-03-01T08:39:29;8.33;;;6.77;;
5297;SDS011;14738;42.668;23.250;2023-03-01T08:41:54;7.13;;;6.43;;
5297;SDS011;14738;42.668;23.250;2023-03-01T08:44:20;6.37;;;5.77;;
5297;SDS011;14738;42.668;23.250;2023-03-01T08:46:48;6.60;;;6.03;;
5297;SDS011;14738;42.668;23.250;2023-03-01T08:49:18;6.17;;;5.67;;
5297;SDS011;14738;42.668;23.250;2023-03-01T08:51:45;6.10;;;5.50;;
5297;SDS011;14738;42.668;23.250;2023-03-01T08:54:16;5.53;;;5.10;;
5297;SDS011;14738;42.668;23.250;2023-03-01T08:56:43;6.90;;;6.30;;
5297;SDS011;14738;42.668;23.250;2023-03-01T08:59:10;4.43;;;4.03;;
5297;SDS011;14738;42.668;23.250;2023-03-01T09:01:36;3.70;;;3.40;;
5297;SDS011;14738;42.668;23.250;2023-03-01T09:04:02;6.20;;;4.73;;
5297;SDS011;14738;42.668;23.250;2023-03-01T09:06:29;5.33;;;4.83;;
5297;SDS011;14738;42.668;23.250;2023-03-01T09:08:56;7.13;;;4.70;;
5297;SDS011;14738;42.668;23.250;2023-03-01T09:11:22;4.90;;;3.67;;
5297;SDS011;14738;42.668;23.250;2023-03-01T09:13:48;4.27;;;3.97;;
5297;SDS011;14738;42.668;23.250;2023-03-01T09:16:14;4.80;;;4.40;;
5297;SDS011;14738;42.668;23.250;2023-03-01T09:18:42;5.53;;;4.67;;
5297;SDS011;14738;42.668;23.250;2023-03-01T09:21:15;6.37;;;4.57;;
5297;SDS011;14738;42.668;23.250;2023-03-01T09:23:42;7.50;;;5.20;;
5297;SDS011;14738;42.668;23.250;2023-03-01T09:26:10;5.67;;;4.87;;
5297;SDS011;14738;42.668;23.250;2023-03-01T09:28:41;6.00;;;5.50;;
5297;SDS011;14738;42.668;23.250;2023-03-01T09:31:07;5.83;;;5.33;;
5297;SDS011;14738;42.668;23.250;2023-03-01T09:33:33;5.83;;;5.20;;
5297;SDS011;14738;42.668;23.250;2023-03-01T09:36:00;5.37;;;4.47;;
5297;SDS011;14738;42.668;23.250;2023-03-01T09:38:28;5.60;;;5.20;;
5297;SDS011;14738;42.668;23.250;2023-03-01T09:40:53;4.97;;;4.57;;
5297;SDS011;14738;42.668;23.250;2023-03-01T09:43:41;4.30;;;3.90;;
5297;SDS011;14738;42.668;23.250;2023-03-01T09:46:19;4.37;;;3.97;;
5297;SDS011;14738;42.668;23.250;2023-03-01T09:48:48;3.60;;;3.40;;
5297;SDS011;14738;42.668;23.250;2023-03-01T09:51:19;4.40;;;4.10;;
5297;SDS011;14738;42.668;23.250;2023-03-01T09:53:57;4.00;;;3.60;;
5297;SDS011;14738;42.668;23.250;2023-03-01T10:01:43;4.23;;;3.93;;
5297;SDS011;14738;42.668;23.250;2023-03-01T10:09:36;5.87;;;4.47;;
5297;SDS011;14738;42.668;23.250;2023-03-01T10:12:04;4.17;;;3.67;;
5297;SDS011;14738;42.668;23.250;2023-03-01T10:17:04;5.33;;;3.00;;
5297;SDS011;14738;42.668;23.250;2023-03-01T10:19:53;3.60;;;3.33;;
5297;SDS011;14738;42.668;23.250;2023-03-01T10:22:21;3.90;;;3.60;;
5297;SDS011;14738;42.668;23.250;2023-03-01T10:24:53;3.80;;;3.60;;
5297;SDS011;14738;42.668;23.250;2023-03-01T10:27:24;3.50;;;3.30;;
5297;SDS011;14738;42.668;23.250;2023-03-01T10:32:31;5.17;;;4.63;;
5297;SDS011;14738;42.668;23.250;2023-03-01T10:34:56;3.53;;;3.20;;
5297;SDS011;14738;42.668;23.250;2023-03-01T10:37:22;4.47;;;3.67;;
5297;SDS011;14738;42.668;23.250;2023-03-01T10:42:34;3.27;;;3.07;;
5297;SDS011;14738;42.668;23.250;2023-03-01T10:50:49;6.37;;;5.13;;
5297;SDS011;14738;42.668;23.250;2023-03-01T10:58:30;5.17;;;4.77;;
5297;SDS011;14738;42.668;23.250;2023-03-01T11:00:58;4.70;;;4.30;;
5297;SDS011;14738;42.668;23.250;2023-03-01T11:03:36;4.37;;;4.07;;
5297;SDS011;14738;42.668;23.250;2023-03-01T11:13:37;5.00;;;4.70;;
5297;SDS011;14738;42.668;23.250;2023-03-01T11:16:14;4.83;;;4.43;;
5297;SDS011;14738;42.668;23.250;2023-03-01T11:18:42;3.97;;;3.57;;
5297;SDS011;14738;42.668;23.250;2023-03-01T11:21:07;5.17;;;4.70;;
5297;SDS011;14738;42.668;23.250;2023-03-01T11:23:33;5.90;;;5.33;;
5297;SDS011;14738;42.668;23.250;2023-03-01T11:26:03;6.70;;;4.83;;
5297;SDS011;14738;42.668;23.250;2023-03-01T11:28:32;6.10;;;4.10;;
5297;SDS011;14738;42.668;23.250;2023-03-01T11:31:09;5.53;;;5.03;;
5297;SDS011;14738;42.668;23.250;2023-03-01T11:33:57;6.90;;;5.53;;
5297;SDS011;14738;42.668;23.250;2023-03-01T11:36:44;6.30;;;5.63;;
5297;SDS011;14738;42.668;23.250;2023-03-01T11:39:22;7.00;;;5.40;;
5297;SDS011;14738;42.668;23.250;2023-03-01T11:42:15;5.80;;;4.80;;
5297;SDS011;14738;42.668;23.250;2023-03-01T11:44:46;5.33;;;4.93;;
5297;SDS011;14738;42.668;23.250;2023-03-01T11:55:09;5.87;;;4.63;;
5297;SDS011;14738;42.668;23.250;2023-03-01T12:08:58;4.63;;;4.33;;
5297;SDS011;14738;42.668;23.250;2023-03-01T12:17:28;7.93;;;5.07;;
5297;SDS011;14738;42.668;23.250;2023-03-01T12:36:39;6.80;;;6.10;;
5297;SDS011;14738;42.668;23.250;2023-03-01T12:51:14;6.40;;;5.17;;
5297;SDS011;14738;42.668;23.250;2023-03-01T12:53:53;5.43;;;5.00;;
5297;SDS011;14738;42.668;23.250;2023-03-01T13:04:28;5.20;;;4.80;;
5297;SDS011;14738;42.668;23.250;2023-03-01T13:07:14;5.87;;;5.27;;
5297;SDS011;14738;42.668;23.250;2023-03-01T13:18:33;5.23;;;4.83;;
5297;SDS011;14738;42.668;23.250;2023-03-01T13:23:10;6.30;;;4.77;;
5297;SDS011;14738;42.668;23.250;2023-03-01T13:32:03;4.53;;;4.23;;
5297;SDS011;14738;42.668;23.250;2023-03-01T13:34:39;6.93;;;5.20;;
5297;SDS011;14738;42.668;23.250;2023-03-01T13:37:10;7.00;;;6.40;;
5297;SDS011;14738;42.668;23.250;2023-03-01T13:39:44;8.87;;;4.77;;
5297;SDS011;14738;42.668;23.250;2023-03-01T13:42:28;5.30;;;4.87;;
5297;SDS011;14738;42.668;23.250;2023-03-01T13:44:57;5.87;;;5.27;;
5297;SDS011;14738;42.668;23.250;2023-03-01T13:47:23;8.20;;;7.50;;
5297;SDS011;14738;42.668;23.250;2023-03-01T13:55:05;5.80;;;5.20;;
5297;SDS011;14738;42.668;23.250;2023-03-01T13:57:47;4.90;;;4.43;;
5297;SDS011;14738;42.668;23.250;2023-03-01T14:00:25;5.80;;;5.30;;
5297;SDS011;14738;42.668;23.250;2023-03-01T14:03:39;6.10;;;5.60;;
5297;SDS011;14738;42.668;23.250;2023-03-01T14:05:57;8.83;;;5.90;;
5297;SDS011;14738;42.668;23.250;2023-03-01T14:08:26;8.73;;;6.40;;
5297;SDS011;14738;42.668;23.250;2023-03-01T14:21:43;5.47;;;5.07;;
5297;SDS011;14738;42.668;23.250;2023-03-01T14:24:20;6.70;;;6.20;;
5297;SDS011;14738;42.668;23.250;2023-03-01T14:26:47;9.23;;;7.00;;
5297;SDS011;14738;42.668;23.250;2023-03-01T14:29:28;5.67;;;5.17;;
5297;SDS011;14738;42.668;23.250;2023-03-01T14:32:17;5.97;;;5.37;;
5297;SDS011;14738;42.668;23.250;2023-03-01T14:34:45;6.13;;;5.63;;
5297;SDS011;14738;42.668;23.250;2023-03-01T14:37:26;6.77;;;6.17;;
5297;SDS011;14738;42.668;23.250;2023-03-01T14:39:54;5.30;;;4.90;;
5297;SDS011;14738;42.668;23.250;2023-03-01T14:42:22;6.10;;;5.60;;
5297;SDS011;14738;42.668;23.250;2023-03-01T14:44:51;6.87;;;6.30;;
5297;SDS011;14738;42.668;23.250;2023-03-01T14:47:34;6.90;;;6.13;;
5297;SDS011;14738;42.668;23.250;2023-03-01T14:50:14;6.63;;;5.97;;
5297;SDS011;14738;42.668;23.250;2023-03-01T14:52:58;4.80;;;4.37;;
5297;SDS011;14738;42.668;23.250;2023-03-01T14:55:29;5.60;;;5.10;;
5297;SDS011;14738;42.668;23.250;2023-03-01T14:57:59;4.97;;;4.57;;
5297;SDS011;14738;42.668;23.250;2023-03-01T15:00:29;5.10;;;4.70;;
5297;SDS011;14738;42.668;23.250;2023-03-01T15:02:56;7.10;;;6.40;;
5297;SDS011;14738;42.668;23.250;2023-03-01T15:05:30;5.50;;;5.00;;
5297;SDS011;14738;42.668;23.250;2023-03-01T15:07:58;6.53;;;6.00;;
5297;SDS011;14738;42.668;23.250;2023-03-01T15:10:30;6.67;;;6.00;;
5297;SDS011;14738;42.668;23.250;2023-03-01T15:13:12;6.80;;;5.77;;
5297;SDS011;14738;42.668;23.250;2023-03-01T15:15:40;8.60;;;5.53;;
5297;SDS011;14738;42.668;23.250;2023-03-01T15:18:21;5.37;;;4.87;;
5297;SDS011;14738;42.668;23.250;2023-03-01T15:20:51;6.23;;;5.20;;
5297;SDS011;14738;42.668;23.250;2023-03-01T15:23:19;6.87;;;5.10;;
5297;SDS011;14738;42.668;23.250;2023-03-01T15:25:50;8.43;;;5.50;;
5297;SDS011;14738;42.668;23.250;2023-03-01T15:28:22;6.30;;;5.70;;
5297;SDS011;14738;42.668;23.250;2023-03-01T15:31:03;7.93;;;5.03;;
5297;SDS011;14738;42.668;23.250;2023-03-01T15:33:32;5.37;;;4.87;;
5297;SDS011;14738;42.668;23.250;2023-03-01T15:36:03;5.50;;;5.00;;
5297;SDS011;14738;42.668;23.250;2023-03-01T15:39:22;7.83;;;6.60;;
5297;SDS011;14738;42.668;23.250;2023-03-01T15:41:50;8.63;;;6.67;;
5297;SDS011;14738;42.668;23.250;2023-03-01T15:46:52;10.43;;;5.33;;
5297;SDS011;14738;42.668;23.250;2023-03-01T15:52:01;7.67;;;6.90;;
5297;SDS011;14738;42.668;23.250;2023-03-01T15:54:28;5.70;;;5.20;;
5297;SDS011;14738;42.668;23.250;2023-03-01T15:56:54;6.43;;;5.80;;
5297;SDS011;14738;42.668;23.250;2023-03-01T15:59:20;6.80;;;6.07;;
5297;SDS011;14738;42.668;23.250;2023-03-01T16:01:47;4.93;;;4.53;;
5297;SDS011;14738;42.668;23.250;2023-03-01T16:04:13;6.23;;;5.63;;
5297;SDS011;14738;42.668;23.250;2023-03-01T16:06:52;4.87;;;4.47;;
5297;SDS011;14738;42.668;23.250;2023-03-01T16:09:22;6.20;;;5.60;;
5297;SDS011;14738;42.668;23.250;2023-03-01T16:11:51;9.63;;;6.90;;
5297;SDS011;14738;42.668;23.250;2023-03-01T16:14:18;7.17;;;6.10;;
5297;SDS011;14738;42.668;23.250;2023-03-01T16:16:43;5.40;;;4.90;;
5297;SDS011;14738;42.668;23.250;2023-03-01T16:19:09;7.43;;;6.63;;
5297;SDS011;14738;42.668;23.250;2023-03-01T16:21:35;5.43;;;4.93;;
5297;SDS011;14738;42.668;23.250;2023-03-01T16:24:01;5.90;;;5.43;;
5297;SDS011;14738;42.668;23.250;2023-03-01T16:26:27;6.50;;;5.80;;
5297;SDS011;14738;42.668;23.250;2023-03-01T16:28:56;9.50;;;6.03;;
5297;SDS011;14738;42.668;23.250;2023-03-01T16:31:21;9.90;;;5.93;;
5297;SDS011;14738;42.668;23.250;2023-03-01T16:33:48;7.33;;;5.60;;
5297;SDS011;14738;42.668;23.250;2023-03-01T16:36:18;6.60;;;5.43;;
5297;SDS011;14738;42.668;23.250;2023-03-01T16:38:44;8.03;;;7.13;;
5297;SDS011;14738;42.668;23.250;2023-03-01T16:41:14;6.43;;;5.57;;
5297;SDS011;14738;42.668;23.250;2023-03-01T16:43:41;10.67;;;7.30;;
5297;SDS011;14738;42.668;23.250;2023-03-01T16:46:14;7.20;;;5.13;;
5297;SDS011;14738;42.668;23.250;2023-03-01T16:48:41;5.40;;;5.00;;
5297;SDS011;14738;42.668;23.250;2023-03-01T16:51:07;11.33;;;5.47;;
5297;SDS011;14738;42.668;23.250;2023-03-01T16:53:37;6.70;;;5.30;;
5297;SDS011;14738;42.668;23.250;2023-03-01T16:56:03;9.90;;;6.60;;
5297;SDS011;14738;42.668;23.250;2023-03-01T16:58:31;7.83;;;7.00;;
5297;SDS011;14738;42.668;23.250;2023-03-01T17:01:00;7.10;;;6.10;;
5297;SDS011;14738;42.668;23.250;2023-03-01T17:03:29;6.50;;;5.60;;
5297;SDS011;14738;42.668;23.250;2023-03-01T17:05:54;7.80;;;6.10;;
5297;SDS011;14738;42.668;23.250;2023-03-01T17:08:20;14.00;;;11.00;;
5297;SDS011;14738;42.668;23.250;2023-03-01T17:10:45;9.47;;;8.47;;
5297;SDS011;14738;42.668;23.250;2023-03-01T17:13:11;6.83;;;6.23;;
5297;SDS011;14738;42.668;23.250;2023-03-01T17:15:39;7.90;;;7.07;;
5297;SDS011;14738;42.668;23.250;2023-03-01T17:18:06;7.87;;;5.83;;
5297;SDS011;14738;42.668;23.250;2023-03-01T17:20:32;5.67;;;5.10;;
5297;SDS011;14738;42.668;23.250;2023-03-01T17:22:58;8.73;;;5.83;;
5297;SDS011;14738;42.668;23.250;2023-03-01T17:25:23;7.73;;;6.10;;
5297;SDS011;14738;42.668;23.250;2023-03-01T17:27:49;9.47;;;6.20;;